Matthew — WQZ3847 — position and weather

sailwx.info

Track history (hours):
 
Tides and Currents Weather Stations Pressure Air Temp Water Temp Dewpoint Dewpoint Depression Visibility Wind Speed Wind Dir Waves Ship Positions

Matthew

Owner: C & C BOATS INC, HUNTINGTON BEACH, CA. More information available from US FCC via Universal Licensing System and Coast Guard Vessel Documentation Center.

Last reported at 2018-Feb-19 10:43 UTC. Time now 2018-Feb-19 11:59 UTC.
Position N 34°23' W 119°30'.

Length 27 m.

Type: Passenger vessel. MMSI: 366952950.

Date/timePositionNaut miles runAvg speedWind from/ knotsBaromVisibWave heightAir tempDewpointWater temp
2018-Feb-19 10:43N 34°23' W 119°30'0 0.0
2018-Feb-19 10:28N 34°23' W 119°30'0 0.0
2018-Feb-19 09:46N 34°23' W 119°30'0 0.0
2018-Feb-19 09:22N 34°23' W 119°30'0 0.0
2018-Feb-19 09:00N 34°23' W 119°30'0 0.0
2018-Feb-19 06:39N 34°23' W 119°30'0 0.0
2018-Feb-19 05:06N 34°23' W 119°30'0 0.0
2018-Feb-19 01:54N 34°23' W 119°30'0 0.0
2018-Feb-19 01:24N 34°23' W 119°30'0 0.0
2018-Feb-19 01:00N 34°23' W 119°30'1 0.4
2018-Feb-18 23:25N 34°23' W 119°31'0 0.3
2018-Feb-18 22:44N 34°23' W 119°30'0 1.0
2018-Feb-18 22:20N 34°23' W 119°30'0 0.0
2018-Feb-18 21:44N 34°23' W 119°30'1 3.6
2018-Feb-18 21:27N 34°22' W 119°29'715.1
2018-Feb-18 20:58N 34°17' W 119°23'612.6
2018-Feb-18 20:30N 34°15' W 119°16'1 1.0
2018-Feb-18 19:57N 34°14' W 119°16'0 0.0
2018-Feb-18 19:30N 34°14' W 119°16'0 0.0
2018-Feb-18 19:00N 34°14' W 119°16'0 0.0
2018-Feb-18 18:30N 34°14' W 119°16'0 0.0
2018-Feb-18 18:00N 34°14' W 119°16'0 0.0
2018-Feb-18 17:30N 34°14' W 119°16'0 0.0
2018-Feb-18 17:00N 34°14' W 119°16'0 0.0
2018-Feb-18 16:30N 34°14' W 119°16'1 1.1
2018-Feb-18 16:00N 34°15' W 119°16'713.7
2018-Feb-18 15:28N 34°18' W 119°24'715.1
2018-Feb-18 15:00N 34°23' W 119°30'1 1.5
2018-Feb-18 14:29N 34°22' W 119°31'1 1.3
2018-Feb-18 13:48N 34°23' W 119°30'0 0.0
2018-Feb-18 13:21N 34°23' W 119°30'0 0.0
2018-Feb-18 12:00N 34°23' W 119°30'0 0.0
2018-Feb-18 11:27N 34°23' W 119°30'0 0.0
2018-Feb-18 10:57N 34°23' W 119°30'0 0.0
2018-Feb-18 10:03N 34°23' W 119°30'0 0.0
2018-Feb-18 09:48N 34°23' W 119°30'0 0.0
2018-Feb-18 09:24N 34°23' W 119°30'0 0.0
2018-Feb-18 08:54N 34°23' W 119°30'0 0.0
2018-Feb-18 08:09N 34°23' W 119°30'0 0.0
2018-Feb-18 07:51N 34°23' W 119°30'0 0.0
2018-Feb-18 05:54N 34°23' W 119°30'0 0.0
2018-Feb-18 03:30N 34°23' W 119°30'0 0.0
2018-Feb-18 02:57N 34°23' W 119°30'0 0.0
2018-Feb-18 02:30N 34°23' W 119°30'0 0.0
2018-Feb-18 01:55N 34°23' W 119°30'4 2.0
2018-Feb-17 23:49N 34°20' W 119°34'412.9
2018-Feb-17 23:30N 34°23' W 119°30'0 0.1
2018-Feb-17 22:50N 34°23' W 119°31'1 0.4
2018-Feb-17 21:16N 34°23' W 119°30'0 0.0
2018-Feb-17 20:55N 34°23' W 119°30'0 0.0
2018-Feb-17 19:55N 34°23' W 119°30'0 0.0
2018-Feb-17 19:19N 34°23' W 119°30'0 0.0
2018-Feb-17 16:31N 34°23' W 119°30'0 0.1
2018-Feb-17 16:25N 34°23' W 119°30'0 0.0
2018-Feb-17 15:40N 34°23' W 119°30'0 0.0
2018-Feb-17 15:25N 34°23' W 119°30'1 2.0
2018-Feb-17 14:55N 34°22' W 119°31'0 0.3
2018-Feb-17 14:27N 34°22' W 119°31'1 1.5
2018-Feb-17 13:52N 34°23' W 119°30'0 0.0
2018-Feb-17 13:28N 34°23' W 119°30'0 0.0
2018-Feb-17 10:19N 34°23' W 119°30'0 0.0
2018-Feb-17 09:25N 34°23' W 119°30'0 0.0
2018-Feb-17 08:43N 34°23' W 119°30'0 0.0
2018-Feb-17 08:22N 34°23' W 119°30'0 0.0
2018-Feb-17 07:04N 34°23' W 119°30'0 0.0
2018-Feb-17 06:07N 34°23' W 119°30'0 0.0
2018-Feb-17 05:40N 34°23' W 119°30'0 0.0
2018-Feb-17 05:28N 34°23' W 119°30'0 0.0
2018-Feb-17 04:25N 34°23' W 119°30'1 0.4
2018-Feb-17 02:47N 34°23' W 119°30'3 9.0
2018-Feb-17 02:27N 34°21' W 119°33'0 0.2
2018-Feb-17 00:49N 34°20' W 119°33'0 0.0
2018-Feb-17 00:22N 34°20' W 119°33'0 0.0
2018-Feb-16 21:27N 34°20' W 119°33'0 0.0
2018-Feb-16 21:00N 34°20' W 119°33'0 0.0
2018-Feb-16 17:08N 34°20' W 119°33'311.9
2018-Feb-16 16:52N 34°23' W 119°30'0 0.0
2018-Feb-16 15:52N 34°23' W 119°30'2 1.4
2018-Feb-16 14:41N 34°22' W 119°32'2 3.8
2018-Feb-16 14:14N 34°23' W 119°30'0 0.0
2018-Feb-16 13:50N 34°23' W 119°30'0 0.0
2018-Feb-16 13:08N 34°23' W 119°30'0 0.0
2018-Feb-16 12:47N 34°23' W 119°30'0 0.0
2018-Feb-16 12:26N 34°23' W 119°30'0 0.0
2018-Feb-16 10:29N 34°23' W 119°30'0 0.0
2018-Feb-16 09:56N 34°23' W 119°30'0 0.0
2018-Feb-16 09:29N 34°23' W 119°30'0 0.0
2018-Feb-16 08:56N 34°23' W 119°30'0 0.0
2018-Feb-16 07:47N 34°23' W 119°30'0 0.0
2018-Feb-16 07:29N 34°23' W 119°30'0 0.0
2018-Feb-16 03:29N 34°23' W 119°30'0 0.0
2018-Feb-16 02:46N 34°23' W 119°30'3 8.3
2018-Feb-16 02:26N 34°21' W 119°33'2 4.6
2018-Feb-16 02:00N 34°22' W 119°31'2 1.4
2018-Feb-16 00:11N 34°20' W 119°33'0 0.0
2018-Feb-15 23:41N 34°20' W 119°33'2 6.5
2018-Feb-15 23:18N 34°22' W 119°31'3 0.8
2018-Feb-15 19:37N 34°20' W 119°33'0 0.1
2018-Feb-15 19:24N 34°20' W 119°33'1 0.9
2018-Feb-15 18:47N 34°20' W 119°33'3 3.7
2018-Feb-15 17:55N 34°23' W 119°30'0 0.1
2018-Feb-15 17:08N 34°23' W 119°31'1 9.6
2018-Feb-15 16:59N 34°22' W 119°31'2 2.5
2018-Feb-15 16:14N 34°20' W 119°33'0 0.3
2018-Feb-15 15:56N 34°20' W 119°33'1 1.3
2018-Feb-15 15:30N 34°20' W 119°33'1 2.1
2018-Feb-15 14:54N 34°21' W 119°32'2 5.0
2018-Feb-15 14:25N 34°23' W 119°30'1 0.4
2018-Feb-15 12:49N 34°23' W 119°30'0 0.0
2018-Feb-15 11:40N 34°23' W 119°30'0 0.0
2018-Feb-15 11:13N 34°23' W 119°30'0 0.0
2018-Feb-15 09:40N 34°23' W 119°30'0 0.0
2018-Feb-15 09:25N 34°23' W 119°30'0 0.0
2018-Feb-15 05:01N 34°23' W 119°30'0 0.0
2018-Feb-15 04:34N 34°23' W 119°30'0 0.1
2018-Feb-15 02:52N 34°23' W 119°30'3 6.7
2018-Feb-15 02:27N 34°21' W 119°33'0 0.2
2018-Feb-15 00:09N 34°20' W 119°33'0 0.2
2018-Feb-14 23:42N 34°20' W 119°33'3 9.7
2018-Feb-14 23:22N 34°23' W 119°30'3 1.3
2018-Feb-14 20:54N 34°20' W 119°33'0 0.0
2018-Feb-14 15:24N 34°20' W 119°33'1 3.1
2018-Feb-14 14:59N 34°22' W 119°32'2 3.5
2018-Feb-14 14:27N 34°23' W 119°30'1 0.2
2018-Feb-14 10:44N 34°23' W 119°30'0 0.0
2018-Feb-14 10:26N 34°23' W 119°30'0 0.0
2018-Feb-14 07:50N 34°23' W 119°30'0 0.0
2018-Feb-14 07:26N 34°23' W 119°30'0 0.0
2018-Feb-14 05:17N 34°23' W 119°30'0 0.0
2018-Feb-14 03:47N 34°23' W 119°30'0 0.0
2018-Feb-14 03:20N 34°23' W 119°30'0 0.1
2018-Feb-14 02:57N 34°23' W 119°30'3 1.0
2018-Feb-13 23:48N 34°20' W 119°33'3 0.4
2018-Feb-13 16:37N 34°23' W 119°30'1 0.4
2018-Feb-13 15:06N 34°23' W 119°31'4 9.7
2018-Feb-13 14:44N 34°20' W 119°33'311.0
2018-Feb-13 14:29N 34°22' W 119°31'1 0.3
2018-Feb-13 11:07N 34°23' W 119°30'0 0.0
2018-Feb-13 03:08N 34°23' W 119°30'1 2.0
2018-Feb-13 02:29N 34°22' W 119°31'2 3.4
2018-Feb-13 01:54N 34°20' W 119°33'0 0.1
2018-Feb-13 00:58N 34°20' W 119°33'0 0.0
2018-Feb-12 23:46N 34°20' W 119°33'3 6.6
2018-Feb-12 23:17N 34°23' W 119°30'412.3
2018-Feb-12 22:59N 34°20' W 119°33'0 0.8
2018-Feb-12 22:23N 34°20' W 119°33'3 0.4
2018-Feb-12 15:09N 34°23' W 119°30'411.5
2018-Feb-12 14:50N 34°20' W 119°33'4 2.5
2018-Feb-12 13:22N 34°23' W 119°30'3 0.3
2018-Feb-12 02:47N 34°21' W 119°33'2 6.7
2018-Feb-12 02:27N 34°22' W 119°31'1 0.3
2018-Feb-12 00:23N 34°23' W 119°30'0 0.0
2018-Feb-11 23:50N 34°23' W 119°30'0 0.0
2018-Feb-11 23:21N 34°23' W 119°30'3 6.9
2018-Feb-11 22:54N 34°20' W 119°33'2 0.2
2018-Feb-11 14:53N 34°22' W 119°32'0 0.8
2018-Feb-11 14:28N 34°22' W 119°31'1 0.3
2018-Feb-11 10:32N 34°23' W 119°30'0 0.0
2018-Feb-11 07:50N 34°23' W 119°30'0 0.0
2018-Feb-11 04:29N 34°23' W 119°30'0 0.0
2018-Feb-11 03:05N 34°23' W 119°30'1 0.7
2018-Feb-11 02:17N 34°23' W 119°30'3 0.8
2018-Feb-10 22:25N 34°20' W 119°33'5 6.7
2018-Feb-10 21:44N 34°19' W 119°27'414.3
2018-Feb-10 21:29N 34°17' W 119°23'613.1
2018-Feb-10 21:00N 34°15' W 119°16'1 0.3
2018-Feb-10 19:01N 34°15' W 119°16'1 6.0
2018-Feb-10 18:56N 34°15' W 119°16'612.9
2018-Feb-10 18:30N 34°17' W 119°23'9 7.6
2018-Feb-10 17:21N 34°23' W 119°30'0 0.0
2018-Feb-10 16:51N 34°23' W 119°30'0 0.0
2018-Feb-10 15:48N 34°23' W 119°30'0 0.0
2018-Feb-10 15:18N 34°23' W 119°30'1 1.8
2018-Feb-10 14:58N 34°23' W 119°31'1 0.4
2018-Feb-10 12:56N 34°23' W 119°30'0 0.0
2018-Feb-10 10:29N 34°23' W 119°30'0 0.0
2018-Feb-10 09:56N 34°23' W 119°30'0 0.0
2018-Feb-10 08:11N 34°23' W 119°30'0 0.0
2018-Feb-10 07:47N 34°23' W 119°30'0 0.0
2018-Feb-10 07:17N 34°23' W 119°30'0 0.0
2018-Feb-10 06:47N 34°23' W 119°30'0 0.0
2018-Feb-10 06:20N 34°23' W 119°30'0 0.0
2018-Feb-10 05:47N 34°23' W 119°30'0 0.0
2018-Feb-10 05:26N 34°23' W 119°30'0 0.0
2018-Feb-10 04:41N 34°23' W 119°30'0 0.0
2018-Feb-10 04:23N 34°23' W 119°30'0 0.0
2018-Feb-10 03:29N 34°23' W 119°30'1 1.2
2018-Feb-10 02:50N 34°23' W 119°31'2 6.3
2018-Feb-10 02:29N 34°21' W 119°32'0 0.1
2018-Feb-09 23:28N 34°21' W 119°32'1 2.9
2018-Feb-09 22:59N 34°20' W 119°33'1 0.6
2018-Feb-09 21:59N 34°20' W 119°33'  
Track history (hours):
 
Tides and Currents Weather Stations Pressure Air Temp Water Temp Dewpoint Dewpoint Depression Visibility Wind Speed Wind Dir Waves Ship Positions

Matthew

Owner: C & C BOATS INC, HUNTINGTON BEACH, CA. More information available from US FCC via Universal Licensing System and Coast Guard Vessel Documentation Center.

Last reported at 2018-Feb-19 10:43 UTC. Time now 2018-Feb-19 11:59 UTC.
Position N 34°23' W 119°30'.

Length 27 m.

Type: Passenger vessel. MMSI: 366952950.

Date/timePositionNaut miles runAvg speedWind from/ knotsBaromVisibWave heightAir tempDewpointWater temp
2018-Feb-19 10:43N 34°23' W 119°30'0 0.0
2018-Feb-19 10:28N 34°23' W 119°30'0 0.0
2018-Feb-19 09:46N 34°23' W 119°30'0 0.0
2018-Feb-19 09:22N 34°23' W 119°30'0 0.0
2018-Feb-19 09:00N 34°23' W 119°30'0 0.0
2018-Feb-19 06:39N 34°23' W 119°30'0 0.0
2018-Feb-19 05:06N 34°23' W 119°30'0 0.0
2018-Feb-19 01:54N 34°23' W 119°30'0 0.0
2018-Feb-19 01:24N 34°23' W 119°30'0 0.0
2018-Feb-19 01:00N 34°23' W 119°30'1 0.4
2018-Feb-18 23:25N 34°23' W 119°31'0 0.3
2018-Feb-18 22:44N 34°23' W 119°30'0 1.0
2018-Feb-18 22:20N 34°23' W 119°30'0 0.0
2018-Feb-18 21:44N 34°23' W 119°30'1 3.6
2018-Feb-18 21:27N 34°22' W 119°29'715.1
2018-Feb-18 20:58N 34°17' W 119°23'612.6
2018-Feb-18 20:30N 34°15' W 119°16'1 1.0
2018-Feb-18 19:57N 34°14' W 119°16'0 0.0
2018-Feb-18 19:30N 34°14' W 119°16'0 0.0
2018-Feb-18 19:00N 34°14' W 119°16'0 0.0
2018-Feb-18 18:30N 34°14' W 119°16'0 0.0
2018-Feb-18 18:00N 34°14' W 119°16'0 0.0
2018-Feb-18 17:30N 34°14' W 119°16'0 0.0
2018-Feb-18 17:00N 34°14' W 119°16'0 0.0
2018-Feb-18 16:30N 34°14' W 119°16'1 1.1
2018-Feb-18 16:00N 34°15' W 119°16'713.7
2018-Feb-18 15:28N 34°18' W 119°24'715.1
2018-Feb-18 15:00N 34°23' W 119°30'1 1.5
2018-Feb-18 14:29N 34°22' W 119°31'1 1.3
2018-Feb-18 13:48N 34°23' W 119°30'0 0.0
2018-Feb-18 13:21N 34°23' W 119°30'0 0.0
2018-Feb-18 12:00N 34°23' W 119°30'0 0.0
2018-Feb-18 11:27N 34°23' W 119°30'0 0.0
2018-Feb-18 10:57N 34°23' W 119°30'0 0.0
2018-Feb-18 10:03N 34°23' W 119°30'0 0.0
2018-Feb-18 09:48N 34°23' W 119°30'0 0.0
2018-Feb-18 09:24N 34°23' W 119°30'0 0.0
2018-Feb-18 08:54N 34°23' W 119°30'0 0.0
2018-Feb-18 08:09N 34°23' W 119°30'0 0.0
2018-Feb-18 07:51N 34°23' W 119°30'0 0.0
2018-Feb-18 05:54N 34°23' W 119°30'0 0.0
2018-Feb-18 03:30N 34°23' W 119°30'0 0.0
2018-Feb-18 02:57N 34°23' W 119°30'0 0.0
2018-Feb-18 02:30N 34°23' W 119°30'0 0.0
2018-Feb-18 01:55N 34°23' W 119°30'4 2.0
2018-Feb-17 23:49N 34°20' W 119°34'412.9
2018-Feb-17 23:30N 34°23' W 119°30'0 0.1
2018-Feb-17 22:50N 34°23' W 119°31'1 0.4
2018-Feb-17 21:16N 34°23' W 119°30'0 0.0
2018-Feb-17 20:55N 34°23' W 119°30'0 0.0
2018-Feb-17 19:55N 34°23' W 119°30'0 0.0
2018-Feb-17 19:19N 34°23' W 119°30'0 0.0
2018-Feb-17 16:31N 34°23' W 119°30'0 0.1
2018-Feb-17 16:25N 34°23' W 119°30'0 0.0
2018-Feb-17 15:40N 34°23' W 119°30'0 0.0
2018-Feb-17 15:25N 34°23' W 119°30'1 2.0
2018-Feb-17 14:55N 34°22' W 119°31'0 0.3
2018-Feb-17 14:27N 34°22' W 119°31'1 1.5
2018-Feb-17 13:52N 34°23' W 119°30'0 0.0
2018-Feb-17 13:28N 34°23' W 119°30'0 0.0
2018-Feb-17 10:19N 34°23' W 119°30'0 0.0
2018-Feb-17 09:25N 34°23' W 119°30'0 0.0
2018-Feb-17 08:43N 34°23' W 119°30'0 0.0
2018-Feb-17 08:22N 34°23' W 119°30'0 0.0
2018-Feb-17 07:04N 34°23' W 119°30'0 0.0
2018-Feb-17 06:07N 34°23' W 119°30'0 0.0
2018-Feb-17 05:40N 34°23' W 119°30'0 0.0
2018-Feb-17 05:28N 34°23' W 119°30'0 0.0
2018-Feb-17 04:25N 34°23' W 119°30'1 0.4
2018-Feb-17 02:47N 34°23' W 119°30'3 9.0
2018-Feb-17 02:27N 34°21' W 119°33'0 0.2
2018-Feb-17 00:49N 34°20' W 119°33'0 0.0
2018-Feb-17 00:22N 34°20' W 119°33'0 0.0
2018-Feb-16 21:27N 34°20' W 119°33'0 0.0
2018-Feb-16 21:00N 34°20' W 119°33'0 0.0
2018-Feb-16 17:08N 34°20' W 119°33'311.9
2018-Feb-16 16:52N 34°23' W 119°30'0 0.0
2018-Feb-16 15:52N 34°23' W 119°30'2 1.4
2018-Feb-16 14:41N 34°22' W 119°32'2 3.8
2018-Feb-16 14:14N 34°23' W 119°30'0 0.0
2018-Feb-16 13:50N 34°23' W 119°30'0 0.0
2018-Feb-16 13:08N 34°23' W 119°30'0 0.0
2018-Feb-16 12:47N 34°23' W 119°30'0 0.0
2018-Feb-16 12:26N 34°23' W 119°30'0 0.0
2018-Feb-16 10:29N 34°23' W 119°30'0 0.0
2018-Feb-16 09:56N 34°23' W 119°30'0 0.0
2018-Feb-16 09:29N 34°23' W 119°30'0 0.0
2018-Feb-16 08:56N 34°23' W 119°30'0 0.0
2018-Feb-16 07:47N 34°23' W 119°30'0 0.0
2018-Feb-16 07:29N 34°23' W 119°30'0 0.0
2018-Feb-16 03:29N 34°23' W 119°30'0 0.0
2018-Feb-16 02:46N 34°23' W 119°30'3 8.3
2018-Feb-16 02:26N 34°21' W 119°33'2 4.6
2018-Feb-16 02:00N 34°22' W 119°31'2 1.4
2018-Feb-16 00:11N 34°20' W 119°33'0 0.0
2018-Feb-15 23:41N 34°20' W 119°33'2 6.5
2018-Feb-15 23:18N 34°22' W 119°31'3 0.8
2018-Feb-15 19:37N 34°20' W 119°33'0 0.1
2018-Feb-15 19:24N 34°20' W 119°33'1 0.9
2018-Feb-15 18:47N 34°20' W 119°33'3 3.7
2018-Feb-15 17:55N 34°23' W 119°30'0 0.1
2018-Feb-15 17:08N 34°23' W 119°31'1 9.6
2018-Feb-15 16:59N 34°22' W 119°31'2 2.5
2018-Feb-15 16:14N 34°20' W 119°33'0 0.3
2018-Feb-15 15:56N 34°20' W 119°33'1 1.3
2018-Feb-15 15:30N 34°20' W 119°33'1 2.1
2018-Feb-15 14:54N 34°21' W 119°32'2 5.0
2018-Feb-15 14:25N 34°23' W 119°30'1 0.4
2018-Feb-15 12:49N 34°23' W 119°30'0 0.0
2018-Feb-15 11:40N 34°23' W 119°30'0 0.0
2018-Feb-15 11:13N 34°23' W 119°30'0 0.0
2018-Feb-15 09:40N 34°23' W 119°30'0 0.0
2018-Feb-15 09:25N 34°23' W 119°30'0 0.0
2018-Feb-15 05:01N 34°23' W 119°30'0 0.0
2018-Feb-15 04:34N 34°23' W 119°30'0 0.1
2018-Feb-15 02:52N 34°23' W 119°30'3 6.7
2018-Feb-15 02:27N 34°21' W 119°33'0 0.2
2018-Feb-15 00:09N 34°20' W 119°33'0 0.2
2018-Feb-14 23:42N 34°20' W 119°33'3 9.7
2018-Feb-14 23:22N 34°23' W 119°30'3 1.3
2018-Feb-14 20:54N 34°20' W 119°33'0 0.0
2018-Feb-14 15:24N 34°20' W 119°33'1 3.1
2018-Feb-14 14:59N 34°22' W 119°32'2 3.5
2018-Feb-14 14:27N 34°23' W 119°30'1 0.2
2018-Feb-14 10:44N 34°23' W 119°30'0 0.0
2018-Feb-14 10:26N 34°23' W 119°30'0 0.0
2018-Feb-14 07:50N 34°23' W 119°30'0 0.0
2018-Feb-14 07:26N 34°23' W 119°30'0 0.0
2018-Feb-14 05:17N 34°23' W 119°30'0 0.0
2018-Feb-14 03:47N 34°23' W 119°30'0 0.0
2018-Feb-14 03:20N 34°23' W 119°30'0 0.1
2018-Feb-14 02:57N 34°23' W 119°30'3 1.0
2018-Feb-13 23:48N 34°20' W 119°33'3 0.4
2018-Feb-13 16:37N 34°23' W 119°30'1 0.4
2018-Feb-13 15:06N 34°23' W 119°31'4 9.7
2018-Feb-13 14:44N 34°20' W 119°33'311.0
2018-Feb-13 14:29N 34°22' W 119°31'1 0.3
2018-Feb-13 11:07N 34°23' W 119°30'0 0.0
2018-Feb-13 03:08N 34°23' W 119°30'1 2.0
2018-Feb-13 02:29N 34°22' W 119°31'2 3.4
2018-Feb-13 01:54N 34°20' W 119°33'0 0.1
2018-Feb-13 00:58N 34°20' W 119°33'0 0.0
2018-Feb-12 23:46N 34°20' W 119°33'3 6.6
2018-Feb-12 23:17N 34°23' W 119°30'412.3
2018-Feb-12 22:59N 34°20' W 119°33'0 0.8
2018-Feb-12 22:23N 34°20' W 119°33'3 0.4
2018-Feb-12 15:09N 34°23' W 119°30'411.5
2018-Feb-12 14:50N 34°20' W 119°33'4 2.5
2018-Feb-12 13:22N 34°23' W 119°30'3 0.3
2018-Feb-12 02:47N 34°21' W 119°33'2 6.7
2018-Feb-12 02:27N 34°22' W 119°31'1 0.3
2018-Feb-12 00:23N 34°23' W 119°30'0 0.0
2018-Feb-11 23:50N 34°23' W 119°30'0 0.0
2018-Feb-11 23:21N 34°23' W 119°30'3 6.9
2018-Feb-11 22:54N 34°20' W 119°33'2 0.2
2018-Feb-11 14:53N 34°22' W 119°32'0 0.8
2018-Feb-11 14:28N 34°22' W 119°31'1 0.3
2018-Feb-11 10:32N 34°23' W 119°30'0 0.0
2018-Feb-11 07:50N 34°23' W 119°30'0 0.0
2018-Feb-11 04:29N 34°23' W 119°30'0 0.0
2018-Feb-11 03:05N 34°23' W 119°30'1 0.7
2018-Feb-11 02:17N 34°23' W 119°30'3 0.8
2018-Feb-10 22:25N 34°20' W 119°33'5 6.7
2018-Feb-10 21:44N 34°19' W 119°27'414.3
2018-Feb-10 21:29N 34°17' W 119°23'613.1
2018-Feb-10 21:00N 34°15' W 119°16'1 0.3
2018-Feb-10 19:01N 34°15' W 119°16'1 6.0
2018-Feb-10 18:56N 34°15' W 119°16'612.9
2018-Feb-10 18:30N 34°17' W 119°23'9 7.6
2018-Feb-10 17:21N 34°23' W 119°30'0 0.0
2018-Feb-10 16:51N 34°23' W 119°30'0 0.0
2018-Feb-10 15:48N 34°23' W 119°30'0 0.0
2018-Feb-10 15:18N 34°23' W 119°30'1 1.8
2018-Feb-10 14:58N 34°23' W 119°31'1 0.4
2018-Feb-10 12:56N 34°23' W 119°30'0 0.0
2018-Feb-10 10:29N 34°23' W 119°30'0 0.0
2018-Feb-10 09:56N 34°23' W 119°30'0 0.0
2018-Feb-10 08:11N 34°23' W 119°30'0 0.0
2018-Feb-10 07:47N 34°23' W 119°30'0 0.0
2018-Feb-10 07:17N 34°23' W 119°30'0 0.0
2018-Feb-10 06:47N 34°23' W 119°30'0 0.0
2018-Feb-10 06:20N 34°23' W 119°30'0 0.0
2018-Feb-10 05:47N 34°23' W 119°30'0 0.0
2018-Feb-10 05:26N 34°23' W 119°30'0 0.0
2018-Feb-10 04:41N 34°23' W 119°30'0 0.0
2018-Feb-10 04:23N 34°23' W 119°30'0 0.0
2018-Feb-10 03:29N 34°23' W 119°30'1 1.2
2018-Feb-10 02:50N 34°23' W 119°31'2 6.3
2018-Feb-10 02:29N 34°21' W 119°32'0 0.1
2018-Feb-09 23:28N 34°21' W 119°32'1 2.9
2018-Feb-09 22:59N 34°20' W 119°33'1 0.6
2018-Feb-09 21:59N 34°20' W 119°33'  

Dump ship's entire track history